ADDS METAR Data INFO
IDs: Format: Raw Decoded Include TAF

Data at: 1755 UTC 15 Dec 2017

K65S 151730Z AUTO 29003KT 1/2SM SN OVC003 M02/M02 A3008 RMK AO2
K65S 151710Z AUTO 00000KT 3/4SM -SN BKN003 OVC006 M02/M03 A3008 RMK AO2
K65S 151650Z AUTO 00000KT 8SM -SN OVC006 M02/M03 A3009 RMK AO2
K65S 151630Z AUTO 14003KT 7SM OVC006 M02/M03 A3009 RMK AO2
K65S 151610Z AUTO 00000KT 5SM -SN OVC006 M02/M03 A3009 RMK AO2
K65S 151550Z AUTO 00000KT 9SM OVC008 M02/M03 A3011 RMK AO2
K65S 151530Z AUTO 00000KT 10SM OVC008 M02/M03 A3013 RMK AO2
K65S 151510Z AUTO 00000KT 10SM OVC008 M02/M03 A3014 RMK AO2
K65S 151450Z AUTO 00000KT 10SM OVC006 M02/M03 A3013 RMK AO2
K65S 151430Z AUTO 00000KT 10SM OVC006 M02/M03 A3014 RMK AO2
K65S 151410Z AUTO 00000KT 10SM OVC006 M02/M03 A3014 RMK AO2
K65S 151350Z AUTO 00000KT 10SM OVC006 M02/M03 A3014 RMK AO2
K65S 151330Z AUTO 00000KT 10SM OVC006 M02/M04 A3014 RMK AO2
K65S 151310Z AUTO 00000KT 10SM OVC008 M02/M03 A3015 RMK AO2
K65S 151250Z AUTO 00000KT 10SM OVC008 M02/M04 A3017 RMK AO2
K65S 151230Z AUTO 00000KT 10SM OVC008 M02/M04 A3018 RMK AO2
K65S 151210Z AUTO 00000KT 10SM OVC008 M03/M04 A3017 RMK AO2
K65S 151150Z AUTO 00000KT 10SM OVC010 M02/M04 A3019 RMK AO2
K65S 151130Z AUTO 00000KT 10SM OVC010 M03/M04 A3021 RMK AO2
K65S 151110Z AUTO 00000KT 10SM OVC010 M03/M04 A3021 RMK AO2
K65S 151050Z AUTO 00000KT 10SM OVC012 M03/M04 A3023 RMK AO2
K65S 151030Z AUTO 00000KT 10SM OVC014 M03/M04 A3024 RMK AO2
K65S 151010Z AUTO 00000KT 10SM OVC012 M03/M04 A3025 RMK AO2
K65S 150950Z AUTO 00000KT 10SM FEW007 OVC012 M03/M04 A3025 RMK AO2
K65S 150930Z AUTO 00000KT 10SM FEW007 OVC012 M03/M04 A3025 RMK AO2
K65S 150910Z AUTO 00000KT 10SM OVC012 M03/M04 A3027 RMK AO2
K65S 150850Z AUTO 00000KT 10SM OVC012 M03/M04 A3027 RMK AO2
K65S 150830Z AUTO 00000KT 10SM OVC012 M03/M04 A3027 RMK AO2
K65S 150810Z AUTO 00000KT 10SM OVC014 M03/M04 A3028 RMK AO2
K65S 150750Z AUTO 00000KT 10SM OVC014 M03/M04 A3029 RMK AO2
K65S 150730Z AUTO 00000KT 10SM OVC014 M03/M04 A3030 RMK AO2
K65S 150710Z AUTO 00000KT 10SM OVC014 M03/M04 A3031 RMK AO2
K65S 150650Z AUTO 00000KT 10SM OVC014 M03/M04 A3031 RMK AO2
K65S 150630Z AUTO 00000KT 10SM OVC014 M03/M04 A3032 RMK AO2
K65S 150610Z AUTO 00000KT 10SM OVC016 M03/M04 A3033 RMK AO2
K65S 150550Z AUTO 00000KT 10SM SCT011 OVC016 M03/M04 A3034 RMK AO2
K65S 150530Z AUTO 00000KT 10SM BKN011 OVC018 M02/M04 A3035 RMK AO2
K65S 150510Z AUTO 00000KT 10SM SCT011 OVC018 M02/M04 A3036 RMK AO2
K65S 150450Z AUTO 00000KT 10SM OVC018 M02/M04 A3036 RMK AO2
K65S 150430Z AUTO 00000KT 10SM OVC018 M02/M04 A3037 RMK AO2
K65S 150410Z AUTO 00000KT 10SM OVC018 M02/M04 A3037 RMK AO2
K65S 150350Z AUTO 00000KT 10SM OVC018 M02/M04 A3037 RMK AO2
K65S 150330Z AUTO 00000KT 10SM OVC018 M02/M04 A3038 RMK AO2
K65S 150310Z AUTO 00000KT 10SM OVC018 M02/M04 A3038 RMK AO2
K65S 150250Z AUTO 00000KT 10SM OVC018 M02/M05 A3039 RMK AO2
K65S 150230Z AUTO 00000KT 10SM OVC018 M02/M05 A3039 RMK AO2
K65S 150210Z AUTO 00000KT 10SM OVC018 M02/M05 A3040 RMK AO2
K65S 150150Z AUTO 00000KT 10SM OVC016 M02/M05 A3041 RMK AO2
K65S 150130Z AUTO 00000KT 10SM OVC016 M02/M05 A3041 RMK AO2
K65S 150110Z AUTO 00000KT 10SM OVC016 M02/M05 A3041 RMK AO2
K65S 150050Z AUTO 01003KT 10SM OVC016 M02/M05 A3042 RMK AO2
K65S 150030Z AUTO 00000KT 10SM OVC016 M02/M04 A3042 RMK AO2
K65S 150010Z AUTO 00000KT 10SM OVC016 M02/M04 A3041 RMK AO2
K65S 142350Z AUTO 00000KT 10SM OVC016 M02/M04 A3042 RMK AO2
K65S 142330Z AUTO 00000KT 10SM OVC016 M02/M04 A3043 RMK AO2
K65S 142310Z AUTO 00000KT 10SM OVC016 M02/M04 A3044 RMK AO2
K65S 142250Z AUTO 00000KT 10SM OVC016 M02/M04 A3045 RMK AO2
K65S 142230Z AUTO 00000KT 10SM OVC016 M01/M05 A3045 RMK AO2
K65S 142210Z AUTO 00000KT 10SM OVC016 M01/M05 A3045 RMK AO2
K65S 142150Z AUTO 00000KT 10SM OVC016 M01/M05 A3046 RMK AO2
K65S 142130Z AUTO 00000KT 10SM OVC016 M01/M05 A3046 RMK AO2
K65S 142110Z AUTO 00000KT 10SM OVC016 M01/M05 A3046 RMK AO2
K65S 142050Z AUTO 00000KT 10SM OVC016 M01/M05 A3046 RMK AO2
K65S 142030Z AUTO 00000KT 10SM OVC016 M02/M05 A3046 RMK AO2
K65S 142010Z AUTO 00000KT 10SM OVC016 M02/M05 A3048 RMK AO2
K65S 141950Z AUTO 00000KT 10SM OVC016 M02/M05 A3048 RMK AO2
K65S 141930Z AUTO 00000KT 10SM OVC016 M02/M05 A3049 RMK AO2
K65S 141910Z AUTO 00000KT 10SM OVC016 M02/M05 A3050 RMK AO2
K65S 141850Z AUTO 00000KT 10SM OVC016 M02/M05 A3051 RMK AO2
K65S 141830Z AUTO 00000KT 10SM OVC016 M02/M05 A3051 RMK AO2
K65S 141810Z AUTO 00000KT 10SM OVC016 M02/M05 A3052 RMK AO2
K65S 141750Z AUTO 00000KT 10SM OVC016 M02/M05 A3053 RMK AO2
K65S 141730Z AUTO 00000KT 10SM OVC016 M02/M05 A3053 RMK AO2
K65S 141710Z AUTO 00000KT 10SM OVC016 M02/M05 A3053 RMK AO2
K65S 141650Z AUTO 00000KT 10SM OVC016 M02/M04 A3053 RMK AO2
K65S 141630Z AUTO 00000KT 10SM OVC016 M02/M04 A3053 RMK AO2
K65S 141610Z AUTO 00000KT 10SM OVC016 M02/M05 A3052 RMK AO2
K65S 141550Z AUTO 00000KT 10SM OVC016 M02/M05 A3052 RMK AO2
K65S 141530Z AUTO 00000KT 10SM OVC016 M02/M05 A3051 RMK AO2
K65S 141510Z AUTO 00000KT 10SM OVC016 M02/M05 A3051 RMK AO2
K65S 141450Z AUTO 00000KT 10SM OVC016 M02/M05 A3052 RMK AO2
K65S 141430Z AUTO 00000KT 10SM OVC016 M02/M05 A3053 RMK AO2
K65S 141410Z AUTO 00000KT 10SM OVC016 M02/M05 A3054 RMK AO2
K65S 141350Z AUTO 00000KT 10SM OVC016 M02/M05 A3055 RMK AO2
K65S 141330Z AUTO 00000KT 10SM OVC016 M02/M05 A3055 RMK AO2
K65S 141310Z AUTO 00000KT 10SM OVC014 M02/M05 A3055 RMK AO2
K65S 141250Z AUTO 00000KT 10SM OVC014 M02/M05 A3056 RMK AO2
K65S 141230Z AUTO 06005KT 10SM OVC014 M02/M05 A3057 RMK AO2
K65S 141210Z AUTO 00000KT 10SM OVC014 M02/M05 A3057 RMK AO2
K65S 141150Z AUTO 06004KT 10SM OVC014 M02/M05 A3056 RMK AO2
K65S 141130Z AUTO 00000KT 10SM OVC014 M02/M04 A3054 RMK AO2
K65S 141110Z AUTO 00000KT 10SM OVC014 M02/M05 A3054 RMK AO2
K65S 141050Z AUTO 00000KT 10SM OVC014 M02/M04 A3054 RMK AO2
K65S 141030Z AUTO 00000KT 10SM OVC014 M02/M04 A3055 RMK AO2
K65S 141010Z AUTO 00000KT 10SM OVC014 M02/M04 A3056 RMK AO2
K65S 140950Z AUTO 12003KT 10SM OVC014 M02/M04 A3056 RMK AO2
K65S 140930Z AUTO 00000KT 10SM OVC014 M02/M04 A3056 RMK AO2
K65S 140910Z AUTO 00000KT 10SM OVC014 M02/M04 A3056 RMK AO2
K65S 140850Z AUTO 00000KT 10SM OVC014 M02/M04 A3055 RMK AO2
K65S 140830Z AUTO 00000KT 10SM OVC014 M02/M04 A3056 RMK AO2
K65S 140810Z AUTO 00000KT 10SM OVC014 M02/M04 A3056 RMK AO2
K65S 140750Z AUTO 00000KT 10SM OVC014 M02/M04 A3056 RMK AO2
K65S 140730Z AUTO 00000KT 10SM OVC014 M02/M04 A3057 RMK AO2
K65S 140710Z AUTO 00000KT 10SM OVC014 M02/M04 A3057 RMK AO2
K65S 140650Z AUTO 00000KT 10SM OVC014 M01/M04 A3057 RMK AO2
K65S 140630Z AUTO 00000KT 10SM OVC014 M01/M04 A3056 RMK AO2
K65S 140610Z AUTO 00000KT 10SM OVC014 M01/M04 A3057 RMK AO2